KOWX

Putnam County Airport

Ottawa, Ohio, USA
METAR KOWX 231056Z AUTO 00000KT 3SM CLR 11/10 A3016 RMK AO1
Observed Flight Rules
May-23 @ 10:56 UTC (11 minutes ago) Marginal Visual Flight Rules
Visibility Clouds
3 miles
  • Clear skies
Temperatures Readings
Current 11°C / 52°F
Dewpoint 10°C / 50°F
Humidity 94%
Altimeter 30.16" Hg
Pressure 1021 hPa
Elevation 233
METAR KOWX 231056Z AUTO 00000KT 3SM CLR 11/10 A3016 RMK AO1
Observed Flight Rules
May-23 @ 10:56 UTC
(11 minutes ago)
MVFR
Clouds
  • Clear skies
Temperature Dewpoint
11°C / 52°F 10°C / 50°F
Humidity Altimeter Pressure
94% 30.16" Hg 1021 hPa